sensor_id;sensor_type;location;lat;lon;timestamp;P1;durP1;ratioP1;P2;durP2;ratioP2
6928;SDS011;3504;52.616;13.238;2023-08-17T00:01:41;5.65;;;3.60;;
6928;SDS011;3504;52.616;13.238;2023-08-17T00:06:42;5.93;;;3.63;;
6928;SDS011;3504;52.616;13.238;2023-08-17T00:11:42;5.30;;;3.92;;
6928;SDS011;3504;52.616;13.238;2023-08-17T00:16:43;3.63;;;3.33;;
6928;SDS011;3504;52.616;13.238;2023-08-17T00:21:44;6.68;;;3.30;;
6928;SDS011;3504;52.616;13.238;2023-08-17T00:26:45;5.55;;;3.65;;
6928;SDS011;3504;52.616;13.238;2023-08-17T00:31:46;6.32;;;3.30;;
6928;SDS011;3504;52.616;13.238;2023-08-17T00:36:47;9.15;;;4.07;;
6928;SDS011;3504;52.616;13.238;2023-08-17T00:41:47;5.07;;;3.53;;
6928;SDS011;3504;52.616;13.238;2023-08-17T00:46:48;9.20;;;3.55;;
6928;SDS011;3504;52.616;13.238;2023-08-17T00:51:48;7.10;;;3.80;;
6928;SDS011;3504;52.616;13.238;2023-08-17T00:56:49;5.80;;;3.30;;
6928;SDS011;3504;52.616;13.238;2023-08-17T01:01:50;5.43;;;3.75;;
6928;SDS011;3504;52.616;13.238;2023-08-17T01:06:50;5.63;;;4.10;;
6928;SDS011;3504;52.616;13.238;2023-08-17T01:11:58;3.78;;;3.47;;
6928;SDS011;3504;52.616;13.238;2023-08-17T01:17:19;5.80;;;3.97;;
6928;SDS011;3504;52.616;13.238;2023-08-17T01:22:26;7.55;;;3.80;;
6928;SDS011;3504;52.616;13.238;2023-08-17T01:27:33;6.10;;;3.85;;
6928;SDS011;3504;52.616;13.238;2023-08-17T01:32:45;6.03;;;3.40;;
6928;SDS011;3504;52.616;13.238;2023-08-17T01:37:53;6.05;;;3.75;;
6928;SDS011;3504;52.616;13.238;2023-08-17T01:42:59;7.32;;;3.65;;
6928;SDS011;3504;52.616;13.238;2023-08-17T01:48:01;4.70;;;3.30;;
6928;SDS011;3504;52.616;13.238;2023-08-17T01:53:02;5.93;;;3.60;;
6928;SDS011;3504;52.616;13.238;2023-08-17T01:58:03;6.18;;;3.97;;
6928;SDS011;3504;52.616;13.238;2023-08-17T02:03:06;8.38;;;3.63;;
6928;SDS011;3504;52.616;13.238;2023-08-17T02:08:06;5.93;;;3.95;;
6928;SDS011;3504;52.616;13.238;2023-08-17T02:13:07;8.07;;;3.97;;
6928;SDS011;3504;52.616;13.238;2023-08-17T02:18:08;7.30;;;4.07;;
6928;SDS011;3504;52.616;13.238;2023-08-17T02:23:09;8.82;;;4.00;;
6928;SDS011;3504;52.616;13.238;2023-08-17T02:28:09;6.22;;;3.42;;
6928;SDS011;3504;52.616;13.238;2023-08-17T02:33:10;7.38;;;3.58;;
6928;SDS011;3504;52.616;13.238;2023-08-17T02:38:10;7.68;;;3.60;;
6928;SDS011;3504;52.616;13.238;2023-08-17T02:43:11;5.45;;;3.90;;
6928;SDS011;3504;52.616;13.238;2023-08-17T02:48:11;6.90;;;3.38;;
6928;SDS011;3504;52.616;13.238;2023-08-17T02:53:12;5.53;;;3.50;;
6928;SDS011;3504;52.616;13.238;2023-08-17T02:58:12;5.22;;;3.30;;
6928;SDS011;3504;52.616;13.238;2023-08-17T03:03:13;6.78;;;3.10;;
6928;SDS011;3504;52.616;13.238;2023-08-17T03:08:13;5.15;;;3.10;;
6928;SDS011;3504;52.616;13.238;2023-08-17T03:13:14;6.30;;;3.38;;
6928;SDS011;3504;52.616;13.238;2023-08-17T03:18:14;4.10;;;3.00;;
6928;SDS011;3504;52.616;13.238;2023-08-17T03:23:16;5.80;;;3.17;;
6928;SDS011;3504;52.616;13.238;2023-08-17T03:28:16;4.35;;;2.78;;
6928;SDS011;3504;52.616;13.238;2023-08-17T03:33:17;5.60;;;3.10;;
6928;SDS011;3504;52.616;13.238;2023-08-17T03:38:18;5.63;;;2.85;;
6928;SDS011;3504;52.616;13.238;2023-08-17T03:43:18;6.38;;;2.95;;
6928;SDS011;3504;52.616;13.238;2023-08-17T03:48:20;4.38;;;2.72;;
6928;SDS011;3504;52.616;13.238;2023-08-17T03:53:22;6.03;;;2.70;;
6928;SDS011;3504;52.616;13.238;2023-08-17T03:58:26;2.92;;;2.63;;
6928;SDS011;3504;52.616;13.238;2023-08-17T04:03:29;6.25;;;2.95;;
6928;SDS011;3504;52.616;13.238;2023-08-17T04:08:30;3.92;;;2.35;;
6928;SDS011;3504;52.616;13.238;2023-08-17T04:13:31;2.85;;;2.47;;
6928;SDS011;3504;52.616;13.238;2023-08-17T04:18:31;4.38;;;2.67;;
6928;SDS011;3504;52.616;13.238;2023-08-17T04:23:32;2.88;;;2.53;;
6928;SDS011;3504;52.616;13.238;2023-08-17T04:28:32;6.75;;;3.00;;
6928;SDS011;3504;52.616;13.238;2023-08-17T04:33:34;4.45;;;2.88;;
6928;SDS011;3504;52.616;13.238;2023-08-17T04:38:34;4.82;;;2.58;;
6928;SDS011;3504;52.616;13.238;2023-08-17T04:43:35;2.78;;;2.25;;
6928;SDS011;3504;52.616;13.238;2023-08-17T04:48:36;6.07;;;2.60;;
6928;SDS011;3504;52.616;13.238;2023-08-17T04:53:37;3.58;;;2.35;;
6928;SDS011;3504;52.616;13.238;2023-08-17T04:58:37;5.53;;;2.70;;
6928;SDS011;3504;52.616;13.238;2023-08-17T05:03:38;3.97;;;2.70;;
6928;SDS011;3504;52.616;13.238;2023-08-17T05:08:38;6.00;;;2.63;;
6928;SDS011;3504;52.616;13.238;2023-08-17T05:13:39;5.20;;;2.75;;
6928;SDS011;3504;52.616;13.238;2023-08-17T05:18:40;6.55;;;2.50;;
6928;SDS011;3504;52.616;13.238;2023-08-17T05:23:44;4.70;;;2.80;;
6928;SDS011;3504;52.616;13.238;2023-08-17T05:28:45;4.25;;;2.67;;
6928;SDS011;3504;52.616;13.238;2023-08-17T05:33:46;4.57;;;2.67;;
6928;SDS011;3504;52.616;13.238;2023-08-17T05:38:47;3.70;;;2.67;;
6928;SDS011;3504;52.616;13.238;2023-08-17T05:43:48;3.65;;;2.50;;
6928;SDS011;3504;52.616;13.238;2023-08-17T05:48:48;4.05;;;2.50;;
6928;SDS011;3504;52.616;13.238;2023-08-17T05:53:49;4.60;;;3.10;;
6928;SDS011;3504;52.616;13.238;2023-08-17T05:58:49;3.10;;;2.78;;
6928;SDS011;3504;52.616;13.238;2023-08-17T06:03:50;4.13;;;2.70;;
6928;SDS011;3504;52.616;13.238;2023-08-17T06:08:50;6.60;;;3.00;;
6928;SDS011;3504;52.616;13.238;2023-08-17T06:13:51;3.92;;;3.00;;
6928;SDS011;3504;52.616;13.238;2023-08-17T06:18:52;4.38;;;2.70;;
6928;SDS011;3504;52.616;13.238;2023-08-17T06:23:55;4.50;;;2.90;;
6928;SDS011;3504;52.616;13.238;2023-08-17T06:28:56;3.75;;;2.70;;
6928;SDS011;3504;52.616;13.238;2023-08-17T06:33:57;5.25;;;2.97;;
6928;SDS011;3504;52.616;13.238;2023-08-17T06:38:57;4.80;;;3.15;;
6928;SDS011;3504;52.616;13.238;2023-08-17T06:43:58;4.53;;;2.53;;
6928;SDS011;3504;52.616;13.238;2023-08-17T06:48:58;3.97;;;3.00;;
6928;SDS011;3504;52.616;13.238;2023-08-17T06:53:59;4.63;;;2.30;;
6928;SDS011;3504;52.616;13.238;2023-08-17T06:58:59;6.78;;;3.15;;
6928;SDS011;3504;52.616;13.238;2023-08-17T07:04:00;5.93;;;2.88;;
6928;SDS011;3504;52.616;13.238;2023-08-17T07:09:00;6.53;;;3.40;;
6928;SDS011;3504;52.616;13.238;2023-08-17T07:14:03;3.08;;;2.47;;
6928;SDS011;3504;52.616;13.238;2023-08-17T07:19:06;5.32;;;2.67;;
6928;SDS011;3504;52.616;13.238;2023-08-17T07:24:13;6.07;;;2.85;;
6928;SDS011;3504;52.616;13.238;2023-08-17T07:29:15;5.63;;;2.88;;
6928;SDS011;3504;52.616;13.238;2023-08-17T07:34:16;4.75;;;2.88;;
6928;SDS011;3504;52.616;13.238;2023-08-17T07:39:16;3.80;;;2.70;;
6928;SDS011;3504;52.616;13.238;2023-08-17T07:44:18;5.72;;;3.20;;
6928;SDS011;3504;52.616;13.238;2023-08-17T07:49:18;4.78;;;3.22;;
6928;SDS011;3504;52.616;13.238;2023-08-17T07:54:20;4.93;;;3.05;;
6928;SDS011;3504;52.616;13.238;2023-08-17T07:59:20;5.13;;;2.85;;
6928;SDS011;3504;52.616;13.238;2023-08-17T08:04:21;4.05;;;3.60;;
6928;SDS011;3504;52.616;13.238;2023-08-17T08:09:21;5.85;;;3.95;;
6928;SDS011;3504;52.616;13.238;2023-08-17T08:14:22;9.07;;;3.88;;
6928;SDS011;3504;52.616;13.238;2023-08-17T08:19:22;4.90;;;3.40;;
6928;SDS011;3504;52.616;13.238;2023-08-17T08:24:23;5.22;;;3.10;;
6928;SDS011;3504;52.616;13.238;2023-08-17T08:29:23;4.57;;;3.15;;
6928;SDS011;3504;52.616;13.238;2023-08-17T08:34:24;4.57;;;2.95;;
6928;SDS011;3504;52.616;13.238;2023-08-17T08:39:25;5.63;;;3.10;;
6928;SDS011;3504;52.616;13.238;2023-08-17T08:44:26;6.05;;;2.67;;
6928;SDS011;3504;52.616;13.238;2023-08-17T08:49:27;3.75;;;2.95;;
6928;SDS011;3504;52.616;13.238;2023-08-17T08:54:30;4.25;;;3.00;;
6928;SDS011;3504;52.616;13.238;2023-08-17T08:59:33;3.42;;;3.10;;
6928;SDS011;3504;52.616;13.238;2023-08-17T09:04:35;3.50;;;3.20;;
6928;SDS011;3504;52.616;13.238;2023-08-17T09:09:36;4.30;;;3.70;;
6928;SDS011;3504;52.616;13.238;2023-08-17T09:14:37;5.32;;;3.97;;
6928;SDS011;3504;52.616;13.238;2023-08-17T09:19:38;7.63;;;4.10;;
6928;SDS011;3504;52.616;13.238;2023-08-17T09:24:38;8.10;;;4.22;;
6928;SDS011;3504;52.616;13.238;2023-08-17T09:29:40;4.47;;;4.07;;
6928;SDS011;3504;52.616;13.238;2023-08-17T09:34:45;5.00;;;3.90;;
6928;SDS011;3504;52.616;13.238;2023-08-17T09:39:46;5.18;;;3.60;;
6928;SDS011;3504;52.616;13.238;2023-08-17T09:44:46;5.15;;;4.30;;
6928;SDS011;3504;52.616;13.238;2023-08-17T09:49:51;5.15;;;3.53;;
6928;SDS011;3504;52.616;13.238;2023-08-17T09:54:52;6.13;;;4.20;;
6928;SDS011;3504;52.616;13.238;2023-08-17T09:59:54;3.95;;;3.60;;
6928;SDS011;3504;52.616;13.238;2023-08-17T10:04:55;4.20;;;3.78;;
6928;SDS011;3504;52.616;13.238;2023-08-17T10:10:04;6.57;;;4.22;;
6928;SDS011;3504;52.616;13.238;2023-08-17T10:15:10;5.10;;;3.70;;
6928;SDS011;3504;52.616;13.238;2023-08-17T10:20:12;8.45;;;4.07;;
6928;SDS011;3504;52.616;13.238;2023-08-17T10:25:14;5.80;;;4.50;;
6928;SDS011;3504;52.616;13.238;2023-08-17T10:30:16;4.68;;;3.58;;
6928;SDS011;3504;52.616;13.238;2023-08-17T10:35:16;4.00;;;3.53;;
6928;SDS011;3504;52.616;13.238;2023-08-17T10:40:23;5.47;;;4.00;;
6928;SDS011;3504;52.616;13.238;2023-08-17T10:45:28;4.72;;;3.60;;
6928;SDS011;3504;52.616;13.238;2023-08-17T10:50:35;4.53;;;3.75;;
6928;SDS011;3504;52.616;13.238;2023-08-17T10:55:37;5.47;;;3.80;;
6928;SDS011;3504;52.616;13.238;2023-08-17T11:00:44;3.97;;;3.63;;
6928;SDS011;3504;52.616;13.238;2023-08-17T11:05:51;4.35;;;3.85;;
6928;SDS011;3504;52.616;13.238;2023-08-17T11:11:07;6.18;;;3.90;;
6928;SDS011;3504;52.616;13.238;2023-08-17T11:16:12;6.93;;;3.70;;
6928;SDS011;3504;52.616;13.238;2023-08-17T11:21:15;5.57;;;3.88;;
6928;SDS011;3504;52.616;13.238;2023-08-17T11:26:16;4.65;;;3.67;;
6928;SDS011;3504;52.616;13.238;2023-08-17T11:31:17;5.03;;;4.00;;
6928;SDS011;3504;52.616;13.238;2023-08-17T11:36:17;4.40;;;3.85;;
6928;SDS011;3504;52.616;13.238;2023-08-17T11:41:19;7.43;;;4.20;;
6928;SDS011;3504;52.616;13.238;2023-08-17T11:46:20;5.57;;;4.00;;
6928;SDS011;3504;52.616;13.238;2023-08-17T11:51:29;4.15;;;3.80;;
6928;SDS011;3504;52.616;13.238;2023-08-17T11:56:30;4.25;;;3.70;;
6928;SDS011;3504;52.616;13.238;2023-08-17T12:01:32;6.05;;;4.72;;
6928;SDS011;3504;52.616;13.238;2023-08-17T12:06:34;5.85;;;4.75;;
6928;SDS011;3504;52.616;13.238;2023-08-17T12:11:37;4.88;;;4.47;;
6928;SDS011;3504;52.616;13.238;2023-08-17T12:16:47;4.60;;;3.97;;
6928;SDS011;3504;52.616;13.238;2023-08-17T12:21:48;4.47;;;4.07;;
6928;SDS011;3504;52.616;13.238;2023-08-17T12:26:49;5.75;;;4.68;;
6928;SDS011;3504;52.616;13.238;2023-08-17T12:31:51;4.93;;;4.53;;
6928;SDS011;3504;52.616;13.238;2023-08-17T12:36:52;5.22;;;4.70;;
6928;SDS011;3504;52.616;13.238;2023-08-17T12:41:53;5.47;;;4.40;;
6928;SDS011;3504;52.616;13.238;2023-08-17T12:46:53;6.45;;;4.90;;
6928;SDS011;3504;52.616;13.238;2023-08-17T12:51:54;12.25;;;5.85;;
6928;SDS011;3504;52.616;13.238;2023-08-17T12:56:54;6.03;;;5.28;;
6928;SDS011;3504;52.616;13.238;2023-08-17T13:01:55;5.95;;;5.32;;
6928;SDS011;3504;52.616;13.238;2023-08-17T13:06:55;6.57;;;5.43;;
6928;SDS011;3504;52.616;13.238;2023-08-17T13:11:56;6.85;;;6.18;;
6928;SDS011;3504;52.616;13.238;2023-08-17T13:16:56;6.72;;;5.93;;
6928;SDS011;3504;52.616;13.238;2023-08-17T13:21:57;6.57;;;5.90;;
6928;SDS011;3504;52.616;13.238;2023-08-17T13:26:57;6.20;;;5.65;;
6928;SDS011;3504;52.616;13.238;2023-08-17T13:31:58;6.32;;;5.70;;
6928;SDS011;3504;52.616;13.238;2023-08-17T13:36:58;6.15;;;5.57;;
6928;SDS011;3504;52.616;13.238;2023-08-17T13:41:59;6.47;;;5.88;;
6928;SDS011;3504;52.616;13.238;2023-08-17T13:46:59;5.60;;;5.13;;
6928;SDS011;3504;52.616;13.238;2023-08-17T13:52:00;7.60;;;5.43;;
6928;SDS011;3504;52.616;13.238;2023-08-17T13:57:00;6.68;;;5.88;;
6928;SDS011;3504;52.616;13.238;2023-08-17T14:02:01;6.13;;;5.47;;
6928;SDS011;3504;52.616;13.238;2023-08-17T14:07:04;6.18;;;5.65;;
6928;SDS011;3504;52.616;13.238;2023-08-17T14:12:05;6.30;;;5.70;;
6928;SDS011;3504;52.616;13.238;2023-08-17T14:17:05;6.25;;;5.63;;
6928;SDS011;3504;52.616;13.238;2023-08-17T14:22:06;5.43;;;4.93;;
6928;SDS011;3504;52.616;13.238;2023-08-17T14:27:06;5.60;;;5.20;;
6928;SDS011;3504;52.616;13.238;2023-08-17T14:32:07;6.00;;;5.40;;
6928;SDS011;3504;52.616;13.238;2023-08-17T14:37:07;6.10;;;5.40;;
6928;SDS011;3504;52.616;13.238;2023-08-17T14:42:08;5.85;;;5.35;;
6928;SDS011;3504;52.616;13.238;2023-08-17T14:47:08;5.57;;;5.18;;
6928;SDS011;3504;52.616;13.238;2023-08-17T14:52:09;7.82;;;5.93;;
6928;SDS011;3504;52.616;13.238;2023-08-17T14:57:09;5.90;;;5.40;;
6928;SDS011;3504;52.616;13.238;2023-08-17T15:02:10;5.30;;;4.80;;
6928;SDS011;3504;52.616;13.238;2023-08-17T15:07:10;6.03;;;5.47;;
6928;SDS011;3504;52.616;13.238;2023-08-17T15:12:11;6.57;;;4.93;;
6928;SDS011;3504;52.616;13.238;2023-08-17T15:17:11;5.47;;;4.97;;
6928;SDS011;3504;52.616;13.238;2023-08-17T15:22:12;5.20;;;4.70;;
6928;SDS011;3504;52.616;13.238;2023-08-17T15:27:13;5.28;;;4.80;;
6928;SDS011;3504;52.616;13.238;2023-08-17T15:32:13;5.47;;;4.97;;
6928;SDS011;3504;52.616;13.238;2023-08-17T15:37:14;5.13;;;4.72;;
6928;SDS011;3504;52.616;13.238;2023-08-17T15:42:15;6.95;;;4.80;;
6928;SDS011;3504;52.616;13.238;2023-08-17T15:47:15;5.82;;;5.28;;
6928;SDS011;3504;52.616;13.238;2023-08-17T15:52:16;5.45;;;4.95;;
6928;SDS011;3504;52.616;13.238;2023-08-17T15:57:16;5.75;;;5.07;;
6928;SDS011;3504;52.616;13.238;2023-08-17T16:02:16;5.30;;;4.80;;
6928;SDS011;3504;52.616;13.238;2023-08-17T16:07:17;5.25;;;4.85;;
6928;SDS011;3504;52.616;13.238;2023-08-17T16:12:17;5.03;;;4.63;;
6928;SDS011;3504;52.616;13.238;2023-08-17T16:17:18;5.25;;;4.35;;
6928;SDS011;3504;52.616;13.238;2023-08-17T16:22:18;5.05;;;4.28;;
6928;SDS011;3504;52.616;13.238;2023-08-17T16:27:19;5.15;;;4.75;;
6928;SDS011;3504;52.616;13.238;2023-08-17T16:32:19;6.05;;;5.35;;
6928;SDS011;3504;52.616;13.238;2023-08-17T16:37:20;6.88;;;5.00;;
6928;SDS011;3504;52.616;13.238;2023-08-17T16:42:21;5.60;;;4.85;;
6928;SDS011;3504;52.616;13.238;2023-08-17T16:47:21;4.93;;;4.53;;
6928;SDS011;3504;52.616;13.238;2023-08-17T16:52:25;5.28;;;4.88;;
6928;SDS011;3504;52.616;13.238;2023-08-17T16:57:26;5.40;;;4.80;;
6928;SDS011;3504;52.616;13.238;2023-08-17T17:02:26;5.65;;;4.90;;
6928;SDS011;3504;52.616;13.238;2023-08-17T17:07:27;6.00;;;5.35;;
6928;SDS011;3504;52.616;13.238;2023-08-17T17:12:27;5.13;;;4.53;;
6928;SDS011;3504;52.616;13.238;2023-08-17T17:17:28;6.72;;;4.80;;
6928;SDS011;3504;52.616;13.238;2023-08-17T17:22:28;5.15;;;4.68;;
6928;SDS011;3504;52.616;13.238;2023-08-17T17:27:29;6.05;;;4.70;;
6928;SDS011;3504;52.616;13.238;2023-08-17T17:32:30;6.95;;;5.43;;
6928;SDS011;3504;52.616;13.238;2023-08-17T17:37:31;5.22;;;4.70;;
6928;SDS011;3504;52.616;13.238;2023-08-17T17:42:31;5.82;;;4.72;;
6928;SDS011;3504;52.616;13.238;2023-08-17T17:47:32;5.20;;;4.70;;
6928;SDS011;3504;52.616;13.238;2023-08-17T17:52:34;5.15;;;4.47;;
6928;SDS011;3504;52.616;13.238;2023-08-17T17:57:35;5.32;;;4.82;;
6928;SDS011;3504;52.616;13.238;2023-08-17T18:02:37;4.90;;;4.38;;
6928;SDS011;3504;52.616;13.238;2023-08-17T18:07:40;6.75;;;4.40;;
6928;SDS011;3504;52.616;13.238;2023-08-17T18:12:41;4.95;;;4.30;;
6928;SDS011;3504;52.616;13.238;2023-08-17T18:17:41;7.57;;;4.10;;
6928;SDS011;3504;52.616;13.238;2023-08-17T18:22:42;4.97;;;3.90;;
6928;SDS011;3504;52.616;13.238;2023-08-17T18:27:42;5.30;;;3.95;;
6928;SDS011;3504;52.616;13.238;2023-08-17T18:32:43;7.45;;;4.40;;
6928;SDS011;3504;52.616;13.238;2023-08-17T18:37:44;5.50;;;3.67;;
6928;SDS011;3504;52.616;13.238;2023-08-17T18:42:46;5.35;;;4.10;;
6928;SDS011;3504;52.616;13.238;2023-08-17T18:47:48;3.50;;;3.20;;
6928;SDS011;3504;52.616;13.238;2023-08-17T18:52:49;7.43;;;3.38;;
6928;SDS011;3504;52.616;13.238;2023-08-17T18:57:49;3.50;;;3.20;;
6928;SDS011;3504;52.616;13.238;2023-08-17T19:02:50;4.85;;;3.95;;
6928;SDS011;3504;52.616;13.238;2023-08-17T19:07:50;3.65;;;3.35;;
6928;SDS011;3504;52.616;13.238;2023-08-17T19:12:51;4.00;;;3.50;;
6928;SDS011;3504;52.616;13.238;2023-08-17T19:17:54;4.68;;;3.67;;
6928;SDS011;3504;52.616;13.238;2023-08-17T19:22:55;5.80;;;3.65;;
6928;SDS011;3504;52.616;13.238;2023-08-17T19:27:55;4.55;;;3.22;;
6928;SDS011;3504;52.616;13.238;2023-08-17T19:32:56;3.75;;;3.28;;
6928;SDS011;3504;52.616;13.238;2023-08-17T19:37:58;4.85;;;3.40;;
6928;SDS011;3504;52.616;13.238;2023-08-17T19:42:58;4.30;;;3.20;;
6928;SDS011;3504;52.616;13.238;2023-08-17T19:47:59;3.67;;;3.05;;
6928;SDS011;3504;52.616;13.238;2023-08-17T19:52:59;3.58;;;3.03;;
6928;SDS011;3504;52.616;13.238;2023-08-17T19:58:00;6.85;;;3.17;;
6928;SDS011;3504;52.616;13.238;2023-08-17T20:03:00;4.72;;;3.45;;
6928;SDS011;3504;52.616;13.238;2023-08-17T20:08:01;6.32;;;3.15;;
6928;SDS011;3504;52.616;13.238;2023-08-17T20:13:02;4.38;;;3.33;;
6928;SDS011;3504;52.616;13.238;2023-08-17T20:18:03;3.13;;;2.83;;
6928;SDS011;3504;52.616;13.238;2023-08-17T20:23:03;5.78;;;3.22;;
6928;SDS011;3504;52.616;13.238;2023-08-17T20:28:04;3.42;;;2.90;;
6928;SDS011;3504;52.616;13.238;2023-08-17T20:33:05;5.07;;;2.92;;
6928;SDS011;3504;52.616;13.238;2023-08-17T20:38:05;4.10;;;2.88;;
6928;SDS011;3504;52.616;13.238;2023-08-17T20:43:06;5.32;;;3.20;;
6928;SDS011;3504;52.616;13.238;2023-08-17T20:48:07;5.40;;;3.30;;
6928;SDS011;3504;52.616;13.238;2023-08-17T20:53:11;6.15;;;3.20;;
6928;SDS011;3504;52.616;13.238;2023-08-17T20:58:12;4.72;;;3.15;;
6928;SDS011;3504;52.616;13.238;2023-08-17T21:03:12;4.50;;;3.33;;
6928;SDS011;3504;52.616;13.238;2023-08-17T21:08:13;4.72;;;3.15;;
6928;SDS011;3504;52.616;13.238;2023-08-17T21:13:13;5.45;;;3.03;;
6928;SDS011;3504;52.616;13.238;2023-08-17T21:18:14;5.97;;;3.50;;
6928;SDS011;3504;52.616;13.238;2023-08-17T21:23:14;5.85;;;3.50;;
6928;SDS011;3504;52.616;13.238;2023-08-17T21:28:15;4.97;;;3.20;;
6928;SDS011;3504;52.616;13.238;2023-08-17T21:33:15;7.22;;;3.65;;
6928;SDS011;3504;52.616;13.238;2023-08-17T21:38:16;3.90;;;3.53;;
6928;SDS011;3504;52.616;13.238;2023-08-17T21:43:16;5.35;;;3.83;;
6928;SDS011;3504;52.616;13.238;2023-08-17T21:48:17;4.85;;;3.50;;
6928;SDS011;3504;52.616;13.238;2023-08-17T21:53:17;4.00;;;3.15;;
6928;SDS011;3504;52.616;13.238;2023-08-17T21:58:18;3.42;;;3.13;;
6928;SDS011;3504;52.616;13.238;2023-08-17T22:03:19;4.25;;;2.92;;
6928;SDS011;3504;52.616;13.238;2023-08-17T22:08:19;4.63;;;3.30;;
6928;SDS011;3504;52.616;13.238;2023-08-17T22:13:20;4.63;;;3.28;;
6928;SDS011;3504;52.616;13.238;2023-08-17T22:18:20;3.67;;;3.30;;
6928;SDS011;3504;52.616;13.238;2023-08-17T22:23:21;5.32;;;3.50;;
6928;SDS011;3504;52.616;13.238;2023-08-17T22:28:21;6.03;;;3.30;;
6928;SDS011;3504;52.616;13.238;2023-08-17T22:33:23;3.95;;;3.55;;
6928;SDS011;3504;52.616;13.238;2023-08-17T22:38:23;8.30;;;3.60;;
6928;SDS011;3504;52.616;13.238;2023-08-17T22:43:24;4.55;;;3.60;;
6928;SDS011;3504;52.616;13.238;2023-08-17T22:48:25;4.80;;;3.70;;
6928;SDS011;3504;52.616;13.238;2023-08-17T22:53:25;5.90;;;3.33;;
6928;SDS011;3504;52.616;13.238;2023-08-17T22:58:27;4.00;;;3.60;;
6928;SDS011;3504;52.616;13.238;2023-08-17T23:03:28;5.60;;;3.78;;
6928;SDS011;3504;52.616;13.238;2023-08-17T23:08:28;7.28;;;3.60;;
6928;SDS011;3504;52.616;13.238;2023-08-17T23:13:29;5.07;;;3.83;;
6928;SDS011;3504;52.616;13.238;2023-08-17T23:18:29;4.28;;;3.80;;
6928;SDS011;3504;52.616;13.238;2023-08-17T23:23:30;4.30;;;3.35;;
6928;SDS011;3504;52.616;13.238;2023-08-17T23:28:30;4.10;;;3.50;;
6928;SDS011;3504;52.616;13.238;2023-08-17T23:33:31;6.20;;;3.75;;
6928;SDS011;3504;52.616;13.238;2023-08-17T23:38:31;4.88;;;3.85;;
6928;SDS011;3504;52.616;13.238;2023-08-17T23:43:32;6.85;;;4.05;;
6928;SDS011;3504;52.616;13.238;2023-08-17T23:48:35;5.72;;;4.47;;
6928;SDS011;3504;52.616;13.238;2023-08-17T23:53:36;6.45;;;4.88;;
6928;SDS011;3504;52.616;13.238;2023-08-17T23:58:36;5.63;;;4.72;;
